Capitol Logistics 947


KIAD
Washington Dulles International Airport
Dulles, Virginia, US
EHAM
Schiphol International Airport
Amsterdam, , NL

Route Details

Aircraft Information
Primary: Boeing 767-300BDSF
Backup: Not Available
Route Data
Distance: 3355nm
Sched. Duration: 7h 48m
Avg. Duration: 7h 31m (-16m)
Times Flown: 6
Recm'd Route: JCOBY3 SWANN BROSS J42 RBV LLUND BAYYS PUT WITCH ALLEX N263A JOOPY NATR BEXET DEVOL RINUS LIFFY UL975 WAL M16 DOLAS L603 LAMSO
Planned Altitude: 31,000ft
Origin Wx: KIAD 272152Z 30018KT 10SM FEW065 03/M09 A2988 RMK AO2 PK WND 28028/2118 SLP121 T00331089
Dest. Wx: EHAM 272225Z 29010KT 9999 FEW033 SCT048 04/01 Q1008 NOSIG
Notes: SEASONAL FLIGHT

Financial History
Total Freight: 212,011lbs
Average Load: 35,335lbs/flt
Fuel Used: 355,970lbs
Avg. Fuel Used: 59,328lbs/flt
Fuel Expense: $463,566
Avg. Fuel Expense: $77,261
Avg. Fuel Cost: $1.31/lbs
Total Gross Income: $505,049
Pilot Pay: $1,414
Total Expenses: $54,857
Total Revenue: $-23,979
Average Revenue: $84,174.87